sensor_id;sensor_type;location;lat;lon;timestamp;pressure;altitude;pressure_sealevel;temperature;humidity
69796;BME280;57073;45.650;9.612;2022-09-27T00:01:36;97797.84;;;16.84;68.36
69796;BME280;57073;45.650;9.612;2022-09-27T00:03:36;97794.84;;;16.86;68.56
69796;BME280;57073;45.650;9.612;2022-09-27T00:05:37;97799.38;;;16.91;68.18
69796;BME280;57073;45.650;9.612;2022-09-27T00:07:38;97801.34;;;16.85;68.21
69796;BME280;57073;45.650;9.612;2022-09-27T00:09:38;97793.09;;;16.95;68.36
69796;BME280;57073;45.650;9.612;2022-09-27T00:11:40;97792.47;;;16.98;68.32
69796;BME280;57073;45.650;9.612;2022-09-27T00:13:43;97789.69;;;17.03;67.07
69796;BME280;57073;45.650;9.612;2022-09-27T00:15:44;97791.31;;;17.04;67.40
69796;BME280;57073;45.650;9.612;2022-09-27T00:17:44;97789.69;;;17.03;66.50
69796;BME280;57073;45.650;9.612;2022-09-27T00:19:45;97773.72;;;17.02;66.50
69796;BME280;57073;45.650;9.612;2022-09-27T00:21:46;97779.97;;;17.02;66.69
69796;BME280;57073;45.650;9.612;2022-09-27T00:23:46;97779.91;;;16.89;67.46
69796;BME280;57073;45.650;9.612;2022-09-27T00:25:54;97778.50;;;16.91;67.44
69796;BME280;57073;45.650;9.612;2022-09-27T00:27:55;97787.34;;;16.97;67.86
69796;BME280;57073;45.650;9.612;2022-09-27T00:29:56;97776.22;;;16.98;67.72
69796;BME280;57073;45.650;9.612;2022-09-27T00:31:56;97771.56;;;16.85;68.65
69796;BME280;57073;45.650;9.612;2022-09-27T00:33:59;97761.81;;;16.84;68.73
69796;BME280;57073;45.650;9.612;2022-09-27T00:36:04;97750.31;;;16.92;67.68
69796;BME280;57073;45.650;9.612;2022-09-27T00:38:05;97755.22;;;16.90;67.47
69796;BME280;57073;45.650;9.612;2022-09-27T00:40:06;97747.09;;;16.90;67.25
69796;BME280;57073;45.650;9.612;2022-09-27T00:42:11;97745.19;;;16.91;66.79
69796;BME280;57073;45.650;9.612;2022-09-27T00:46:33;97749.41;;;16.97;67.48
69796;BME280;57073;45.650;9.612;2022-09-27T00:48:35;97751.41;;;16.91;67.91
69796;BME280;57073;45.650;9.612;2022-09-27T00:50:38;97747.09;;;16.90;68.04
69796;BME280;57073;45.650;9.612;2022-09-27T00:55:15;97736.25;;;16.90;67.90
69796;BME280;57073;45.650;9.612;2022-09-27T00:57:18;97729.50;;;16.88;67.74
69796;BME280;57073;45.650;9.612;2022-09-27T01:01:40;97720.41;;;16.78;67.31
69796;BME280;57073;45.650;9.612;2022-09-27T01:04:06;97717.41;;;16.80;66.36
69796;BME280;57073;45.650;9.612;2022-09-27T01:06:08;97703.75;;;16.71;66.37
69796;BME280;57073;45.650;9.612;2022-09-27T01:08:09;97706.34;;;16.62;66.52
69796;BME280;57073;45.650;9.612;2022-09-27T01:10:10;97699.38;;;16.56;66.70
69796;BME280;57073;45.650;9.612;2022-09-27T01:12:39;97704.88;;;16.51;67.76
69796;BME280;57073;45.650;9.612;2022-09-27T01:17:26;97699.69;;;16.55;66.02
69796;BME280;57073;45.650;9.612;2022-09-27T01:19:50;97706.56;;;16.47;66.21
69796;BME280;57073;45.650;9.612;2022-09-27T01:22:04;97701.53;;;16.40;66.87
69796;BME280;57073;45.650;9.612;2022-09-27T01:33:33;97696.50;;;16.34;66.60
69796;BME280;57073;45.650;9.612;2022-09-27T01:43:11;97656.63;;;16.20;67.58
69796;BME280;57073;45.650;9.612;2022-09-27T01:47:40;97660.81;;;16.32;67.11
69796;BME280;57073;45.650;9.612;2022-09-27T01:49:53;97662.53;;;16.41;66.52
69796;BME280;57073;45.650;9.612;2022-09-27T01:51:59;97651.44;;;16.24;67.58
69796;BME280;57073;45.650;9.612;2022-09-27T01:54:03;97650.06;;;16.26;68.31
69796;BME280;57073;45.650;9.612;2022-09-27T01:56:07;97657.56;;;16.29;68.47
69796;BME280;57073;45.650;9.612;2022-09-27T01:58:21;97652.16;;;16.29;68.32
69796;BME280;57073;45.650;9.612;2022-09-27T02:00:25;97652.25;;;16.24;68.45
69796;BME280;57073;45.650;9.612;2022-09-27T02:02:27;97651.63;;;16.27;69.17
69796;BME280;57073;45.650;9.612;2022-09-27T02:04:31;97648.72;;;16.24;68.93
69796;BME280;57073;45.650;9.612;2022-09-27T02:06:35;97649.84;;;16.23;68.96
69796;BME280;57073;45.650;9.612;2022-09-27T02:08:50;97642.66;;;16.32;68.20
69796;BME280;57073;45.650;9.612;2022-09-27T02:10:53;97642.22;;;16.25;68.90
69796;BME280;57073;45.650;9.612;2022-09-27T02:13:05;97642.59;;;16.18;69.24
69796;BME280;57073;45.650;9.612;2022-09-27T02:15:12;97650.47;;;16.15;69.20
69796;BME280;57073;45.650;9.612;2022-09-27T02:17:30;97636.16;;;16.14;69.48
69796;BME280;57073;45.650;9.612;2022-09-27T02:19:39;97641.72;;;16.23;68.59
69796;BME280;57073;45.650;9.612;2022-09-27T02:21:58;97636.00;;;16.24;68.38
69796;BME280;57073;45.650;9.612;2022-09-27T02:24:02;97627.53;;;16.12;69.25
69796;BME280;57073;45.650;9.612;2022-09-27T02:26:13;97627.13;;;16.19;68.44
69796;BME280;57073;45.650;9.612;2022-09-27T02:28:28;97622.56;;;16.19;68.69
69796;BME280;57073;45.650;9.612;2022-09-27T02:30:30;97623.34;;;16.20;68.08
69796;BME280;57073;45.650;9.612;2022-09-27T02:32:31;97620.34;;;16.21;67.76
69796;BME280;57073;45.650;9.612;2022-09-27T02:34:35;97610.09;;;16.18;67.79
69796;BME280;57073;45.650;9.612;2022-09-27T02:36:36;97605.06;;;16.12;68.15
69796;BME280;57073;45.650;9.612;2022-09-27T02:38:37;97611.28;;;16.12;68.15
69796;BME280;57073;45.650;9.612;2022-09-27T02:40:46;97598.28;;;16.14;67.30
69796;BME280;57073;45.650;9.612;2022-09-27T02:42:46;97592.22;;;16.03;67.42
69796;BME280;57073;45.650;9.612;2022-09-27T02:44:47;97592.56;;;15.97;68.05
69796;BME280;57073;45.650;9.612;2022-09-27T02:51:16;97589.28;;;16.00;69.04
69796;BME280;57073;45.650;9.612;2022-09-27T02:57:50;97584.88;;;16.04;68.64
69796;BME280;57073;45.650;9.612;2022-09-27T03:00:08;97590.69;;;15.97;70.05
69796;BME280;57073;45.650;9.612;2022-09-27T03:04:54;97598.13;;;16.05;68.97
69796;BME280;57073;45.650;9.612;2022-09-27T03:06:55;97591.13;;;16.04;69.14
69796;BME280;57073;45.650;9.612;2022-09-27T03:08:57;97591.19;;;15.99;69.49
69796;BME280;57073;45.650;9.612;2022-09-27T03:10:58;97594.63;;;16.05;69.79
69796;BME280;57073;45.650;9.612;2022-09-27T03:12:58;97592.22;;;16.03;69.76
69796;BME280;57073;45.650;9.612;2022-09-27T03:14:59;97586.13;;;16.12;69.22
69796;BME280;57073;45.650;9.612;2022-09-27T03:17:00;97597.13;;;16.01;69.52
69796;BME280;57073;45.650;9.612;2022-09-27T03:19:00;97592.78;;;16.00;69.98
69796;BME280;57073;45.650;9.612;2022-09-27T03:21:00;97589.78;;;16.02;68.38
69796;BME280;57073;45.650;9.612;2022-09-27T03:23:01;97589.88;;;15.97;68.89
69796;BME280;57073;45.650;9.612;2022-09-27T03:25:01;97580.09;;;16.01;68.12
69796;BME280;57073;45.650;9.612;2022-09-27T03:27:02;97588.78;;;15.98;68.24
69796;BME280;57073;45.650;9.612;2022-09-27T03:29:02;97586.88;;;15.98;68.08
69796;BME280;57073;45.650;9.612;2022-09-27T03:31:03;97585.13;;;15.88;67.89
69796;BME280;57073;45.650;9.612;2022-09-27T03:33:03;97577.38;;;16.01;67.17
69796;BME280;57073;45.650;9.612;2022-09-27T03:35:04;97577.16;;;15.97;67.75
69796;BME280;57073;45.650;9.612;2022-09-27T03:37:04;97579.56;;;15.99;67.35
69796;BME280;57073;45.650;9.612;2022-09-27T03:39:04;97579.56;;;15.99;67.30
69796;BME280;57073;45.650;9.612;2022-09-27T03:41:05;97582.38;;;15.94;68.58
69796;BME280;57073;45.650;9.612;2022-09-27T03:43:05;97585.88;;;15.94;69.39
69796;BME280;57073;45.650;9.612;2022-09-27T03:45:06;97589.38;;;15.95;68.79
69796;BME280;57073;45.650;9.612;2022-09-27T03:47:07;97583.75;;;15.91;67.42
69796;BME280;57073;45.650;9.612;2022-09-27T03:49:07;97589.72;;;15.88;67.38
69796;BME280;57073;45.650;9.612;2022-09-27T03:51:08;97601.41;;;16.02;67.63
69796;BME280;57073;45.650;9.612;2022-09-27T03:53:11;97597.13;;;16.01;68.39
69796;BME280;57073;45.650;9.612;2022-09-27T03:55:12;97578.03;;;15.93;68.95
69796;BME280;57073;45.650;9.612;2022-09-27T03:57:13;97581.19;;;16.00;68.14
69796;BME280;57073;45.650;9.612;2022-09-27T03:59:13;97569.91;;;15.93;68.99
69796;BME280;57073;45.650;9.612;2022-09-27T04:01:14;97559.03;;;15.98;67.94
69796;BME280;57073;45.650;9.612;2022-09-27T04:03:14;97568.41;;;15.86;68.85
69796;BME280;57073;45.650;9.612;2022-09-27T04:05:16;97562.47;;;15.84;68.42
69796;BME280;57073;45.650;9.612;2022-09-27T04:07:17;97557.38;;;15.83;69.50
69796;BME280;57073;45.650;9.612;2022-09-27T04:09:17;97562.63;;;15.74;70.78
69796;BME280;57073;45.650;9.612;2022-09-27T04:11:17;97557.03;;;15.84;68.75
69796;BME280;57073;45.650;9.612;2022-09-27T04:13:18;97566.94;;;15.75;70.05
69796;BME280;57073;45.650;9.612;2022-09-27T04:15:18;97569.63;;;15.75;70.05
69796;BME280;57073;45.650;9.612;2022-09-27T04:17:19;97567.31;;;15.44;71.11
69796;BME280;57073;45.650;9.612;2022-09-27T04:19:19;97564.44;;;15.60;71.16
69796;BME280;57073;45.650;9.612;2022-09-27T04:21:19;97567.22;;;15.74;70.24
69796;BME280;57073;45.650;9.612;2022-09-27T04:23:20;97558.75;;;15.80;69.72
69796;BME280;57073;45.650;9.612;2022-09-27T04:25:20;97572.47;;;15.65;70.65
69796;BME280;57073;45.650;9.612;2022-09-27T04:27:21;97563.69;;;15.73;70.62
69796;BME280;57073;45.650;9.612;2022-09-27T04:29:21;97578.31;;;15.72;70.33
69796;BME280;57073;45.650;9.612;2022-09-27T04:31:22;97567.00;;;15.70;69.85
69796;BME280;57073;45.650;9.612;2022-09-27T04:33:22;97569.09;;;15.73;70.07
69796;BME280;57073;45.650;9.612;2022-09-27T04:35:23;97573.63;;;15.59;71.07
69796;BME280;57073;45.650;9.612;2022-09-27T04:37:42;97578.47;;;15.62;71.04
69796;BME280;57073;45.650;9.612;2022-09-27T04:39:44;97566.56;;;15.63;70.96
69796;BME280;57073;45.650;9.612;2022-09-27T04:41:44;97571.75;;;15.59;70.59
69796;BME280;57073;45.650;9.612;2022-09-27T04:43:44;97564.94;;;15.62;70.72
69796;BME280;57073;45.650;9.612;2022-09-27T04:45:45;97564.34;;;15.46;70.79
69796;BME280;57073;45.650;9.612;2022-09-27T04:47:48;97558.59;;;15.52;71.35
69796;BME280;57073;45.650;9.612;2022-09-27T04:49:49;97560.50;;;15.52;71.00
69796;BME280;57073;45.650;9.612;2022-09-27T04:51:49;97557.56;;;15.48;70.85
69796;BME280;57073;45.650;9.612;2022-09-27T04:53:50;97558.66;;;15.47;70.63
69796;BME280;57073;45.650;9.612;2022-09-27T04:55:52;97558.06;;;15.50;70.94
69796;BME280;57073;45.650;9.612;2022-09-27T04:57:53;97555.88;;;15.52;70.48
69796;BME280;57073;45.650;9.612;2022-09-27T04:59:53;97565.56;;;15.53;70.90
69796;BME280;57073;45.650;9.612;2022-09-27T05:01:54;97558.06;;;15.50;71.49
69796;BME280;57073;45.650;9.612;2022-09-27T05:03:54;97562.31;;;15.57;71.05
69796;BME280;57073;45.650;9.612;2022-09-27T05:05:54;97563.91;;;15.58;70.75
69796;BME280;57073;45.650;9.612;2022-09-27T05:07:55;97565.91;;;15.52;70.77
69796;BME280;57073;45.650;9.612;2022-09-27T05:09:55;97562.31;;;15.57;71.77
69796;BME280;57073;45.650;9.612;2022-09-27T05:11:56;97573.50;;;15.69;70.72
69796;BME280;57073;45.650;9.612;2022-09-27T05:13:56;97571.97;;;15.63;71.07
69796;BME280;57073;45.650;9.612;2022-09-27T05:16:01;97565.50;;;15.59;70.89
69796;BME280;57073;45.650;9.612;2022-09-27T05:18:02;97571.97;;;15.63;70.78
69796;BME280;57073;45.650;9.612;2022-09-27T05:20:03;97577.16;;;15.59;71.49
69796;BME280;57073;45.650;9.612;2022-09-27T05:22:05;97572.47;;;15.65;70.93
69796;BME280;57073;45.650;9.612;2022-09-27T05:24:06;97580.59;;;15.65;71.76
69796;BME280;57073;45.650;9.612;2022-09-27T05:26:06;97572.53;;;15.60;71.55
69796;BME280;57073;45.650;9.612;2022-09-27T05:28:06;97562.81;;;15.59;71.72
69796;BME280;57073;45.650;9.612;2022-09-27T05:30:08;97583.28;;;15.65;71.48
69796;BME280;57073;45.650;9.612;2022-09-27T05:32:10;97576.19;;;15.69;71.33
69796;BME280;57073;45.650;9.612;2022-09-27T05:34:10;97576.41;;;15.72;70.28
69796;BME280;57073;45.650;9.612;2022-09-27T05:36:12;97572.88;;;15.77;69.30
69796;BME280;57073;45.650;9.612;2022-09-27T05:38:12;97565.84;;;15.76;68.83
69796;BME280;57073;45.650;9.612;2022-09-27T05:40:13;97565.25;;;15.79;69.76
69796;BME280;57073;45.650;9.612;2022-09-27T05:42:13;97567.78;;;15.70;69.61
69796;BME280;57073;45.650;9.612;2022-09-27T05:44:15;97567.00;;;15.70;70.59
69796;BME280;57073;45.650;9.612;2022-09-27T05:46:16;97577.38;;;15.63;71.19
69796;BME280;57073;45.650;9.612;2022-09-27T05:48:16;97576.88;;;15.80;70.49
69796;BME280;57073;45.650;9.612;2022-09-27T05:50:16;97570.06;;;15.82;70.54
69796;BME280;57073;45.650;9.612;2022-09-27T05:52:17;97573.00;;;15.86;69.60
69796;BME280;57073;45.650;9.612;2022-09-27T05:54:17;97573.97;;;15.76;69.50
69796;BME280;57073;45.650;9.612;2022-09-27T05:56:18;97568.84;;;15.75;69.93
69796;BME280;57073;45.650;9.612;2022-09-27T05:58:18;97578.75;;;15.60;70.93
69796;BME280;57073;45.650;9.612;2022-09-27T06:00:18;97578.00;;;15.55;71.46
69796;BME280;57073;45.650;9.612;2022-09-27T06:02:19;97577.66;;;15.61;70.45
69796;BME280;57073;45.650;9.612;2022-09-27T06:04:20;97573.91;;;15.57;70.66
69796;BME280;57073;45.650;9.612;2022-09-27T06:06:20;97561.72;;;15.60;70.69
69796;BME280;57073;45.650;9.612;2022-09-27T06:08:22;97572.09;;;15.71;70.66
69796;BME280;57073;45.650;9.612;2022-09-27T06:10:23;97572.41;;;15.70;70.87
69796;BME280;57073;45.650;9.612;2022-09-27T06:12:23;97564.81;;;15.72;70.63
69796;BME280;57073;45.650;9.612;2022-09-27T06:14:24;97570.16;;;15.77;69.06
69796;BME280;57073;45.650;9.612;2022-09-27T06:16:24;97570.69;;;15.79;68.31
69796;BME280;57073;45.650;9.612;2022-09-27T06:18:25;97566.84;;;15.80;68.41
69796;BME280;57073;45.650;9.612;2022-09-27T06:20:25;97579.50;;;15.85;68.21
69796;BME280;57073;45.650;9.612;2022-09-27T06:22:25;97582.91;;;15.71;68.02
69796;BME280;57073;45.650;9.612;2022-09-27T06:24:26;97575.03;;;15.75;68.96
69796;BME280;57073;45.650;9.612;2022-09-27T06:26:26;97574.97;;;15.80;68.99
69796;BME280;57073;45.650;9.612;2022-09-27T06:28:27;97574.81;;;15.90;68.83
69796;BME280;57073;45.650;9.612;2022-09-27T06:30:28;97578.63;;;15.89;68.63
69796;BME280;57073;45.650;9.612;2022-09-27T06:32:28;97576.59;;;15.81;68.04
69796;BME280;57073;45.650;9.612;2022-09-27T06:34:28;97584.41;;;15.83;68.95
69796;BME280;57073;45.650;9.612;2022-09-27T06:36:29;97579.66;;;15.94;68.63
69796;BME280;57073;45.650;9.612;2022-09-27T06:38:29;97585.94;;;15.89;68.83
69796;BME280;57073;45.650;9.612;2022-09-27T06:40:30;97581.69;;;16.02;67.52
69796;BME280;57073;45.650;9.612;2022-09-27T06:42:30;97582.78;;;16.01;67.52
69796;BME280;57073;45.650;9.612;2022-09-27T06:44:31;97583.16;;;15.94;66.90
69796;BME280;57073;45.650;9.612;2022-09-27T06:46:31;97586.81;;;16.03;67.08
69796;BME280;57073;45.650;9.612;2022-09-27T06:48:32;97585.31;;;16.11;66.60
69796;BME280;57073;45.650;9.612;2022-09-27T06:50:35;97589.03;;;16.15;66.77
69796;BME280;57073;45.650;9.612;2022-09-27T06:52:36;97590.16;;;16.14;67.43
69796;BME280;57073;45.650;9.612;2022-09-27T06:54:36;97590.66;;;16.16;66.46
69796;BME280;57073;45.650;9.612;2022-09-27T06:56:37;97595.41;;;16.24;66.46
69796;BME280;57073;45.650;9.612;2022-09-27T06:58:37;97598.69;;;16.21;66.86
69796;BME280;57073;45.650;9.612;2022-09-27T07:00:56;97594.63;;;16.38;66.43
69796;BME280;57073;45.650;9.612;2022-09-27T07:02:57;97594.91;;;16.69;65.93
69796;BME280;57073;45.650;9.612;2022-09-27T07:05:01;97601.44;;;16.68;66.01
69796;BME280;57073;45.650;9.612;2022-09-27T07:07:03;97604.63;;;16.70;65.19
69796;BME280;57073;45.650;9.612;2022-09-27T07:09:03;97597.41;;;16.65;65.30
69796;BME280;57073;45.650;9.612;2022-09-27T07:11:06;97608.06;;;16.76;66.04
69796;BME280;57073;45.650;9.612;2022-09-27T07:13:09;97604.44;;;16.80;65.64
69796;BME280;57073;45.650;9.612;2022-09-27T07:15:09;97598.81;;;16.77;66.06
69796;BME280;57073;45.650;9.612;2022-09-27T07:17:10;97609.66;;;16.77;66.01
69796;BME280;57073;45.650;9.612;2022-09-27T07:19:12;97604.84;;;16.74;66.06
69796;BME280;57073;45.650;9.612;2022-09-27T07:21:14;97608.25;;;16.79;65.71
69796;BME280;57073;45.650;9.612;2022-09-27T07:23:15;97609.06;;;16.80;66.15
69796;BME280;57073;45.650;9.612;2022-09-27T07:25:17;97611.84;;;16.75;66.05
69796;BME280;57073;45.650;9.612;2022-09-27T07:27:17;97603.44;;;16.76;65.61
69796;BME280;57073;45.650;9.612;2022-09-27T07:29:17;97609.97;;;16.75;65.75
69796;BME280;57073;45.650;9.612;2022-09-27T07:31:18;97613.09;;;16.82;65.50
69796;BME280;57073;45.650;9.612;2022-09-27T07:33:18;97605.50;;;16.98;65.49
69796;BME280;57073;45.650;9.612;2022-09-27T07:35:19;97606.69;;;17.20;65.36
69796;BME280;57073;45.650;9.612;2022-09-27T07:37:19;97609.28;;;17.53;65.05
69796;BME280;57073;45.650;9.612;2022-09-27T07:39:20;97614.28;;;17.73;63.96
69796;BME280;57073;45.650;9.612;2022-09-27T07:41:21;97611.03;;;17.85;63.02
69796;BME280;57073;45.650;9.612;2022-09-27T07:43:21;97609.22;;;17.94;62.63
69796;BME280;57073;45.650;9.612;2022-09-27T07:45:23;97613.72;;;17.99;62.01
69796;BME280;57073;45.650;9.612;2022-09-27T07:47:24;97627.69;;;18.06;61.70
69796;BME280;57073;45.650;9.612;2022-09-27T07:49:25;97621.19;;;18.16;61.28
69796;BME280;57073;45.650;9.612;2022-09-27T07:51:25;97621.00;;;18.12;60.49
69796;BME280;57073;45.650;9.612;2022-09-27T07:53:26;97627.19;;;18.04;60.77
69796;BME280;57073;45.650;9.612;2022-09-27T07:55:26;97630.78;;;18.13;61.48
69796;BME280;57073;45.650;9.612;2022-09-27T07:57:27;97627.59;;;18.20;61.51
69796;BME280;57073;45.650;9.612;2022-09-27T07:59:27;97622.38;;;18.24;61.29
69796;BME280;57073;45.650;9.612;2022-09-27T08:01:28;97624.78;;;18.48;60.93
69796;BME280;57073;45.650;9.612;2022-09-27T08:03:28;97619.78;;;18.64;60.36
69796;BME280;57073;45.650;9.612;2022-09-27T08:05:29;97626.19;;;18.68;59.40
69796;BME280;57073;45.650;9.612;2022-09-27T08:07:29;97618.66;;;18.87;59.93
69796;BME280;57073;45.650;9.612;2022-09-27T08:09:32;97608.63;;;19.05;58.98
69796;BME280;57073;45.650;9.612;2022-09-27T08:11:32;97601.50;;;19.18;59.21
69796;BME280;57073;45.650;9.612;2022-09-27T08:13:32;97608.59;;;19.37;59.00
69796;BME280;57073;45.650;9.612;2022-09-27T08:15:33;97611.19;;;19.59;58.82
69796;BME280;57073;45.650;9.612;2022-09-27T08:17:38;97612.38;;;19.84;59.67
69796;BME280;57073;45.650;9.612;2022-09-27T08:19:39;97616.22;;;19.92;58.10
69796;BME280;57073;45.650;9.612;2022-09-27T08:21:39;97614.28;;;20.01;56.92
69796;BME280;57073;45.650;9.612;2022-09-27T08:23:40;97618.00;;;20.05;56.72
69796;BME280;57073;45.650;9.612;2022-09-27T08:25:41;97615.13;;;20.10;56.06
69796;BME280;57073;45.650;9.612;2022-09-27T08:27:43;97615.91;;;20.11;55.84
69796;BME280;57073;45.650;9.612;2022-09-27T08:29:43;97621.50;;;19.97;56.55
69796;BME280;57073;45.650;9.612;2022-09-27T08:31:44;97626.16;;;19.97;56.15
69796;BME280;57073;45.650;9.612;2022-09-27T08:33:48;97615.09;;;19.93;56.49
69796;BME280;57073;45.650;9.612;2022-09-27T08:35:49;97617.03;;;19.84;56.32
69796;BME280;57073;45.650;9.612;2022-09-27T08:37:56;97620.47;;;19.67;55.66
69796;BME280;57073;45.650;9.612;2022-09-27T08:39:58;97615.81;;;19.50;56.07
69796;BME280;57073;45.650;9.612;2022-09-27T08:42:40;97610.50;;;19.45;56.46
69796;BME280;57073;45.650;9.612;2022-09-27T08:44:46;97610.66;;;19.31;56.68
69796;BME280;57073;45.650;9.612;2022-09-27T08:49:09;97609.31;;;19.11;57.16
69796;BME280;57073;45.650;9.612;2022-09-27T08:51:12;97606.25;;;19.12;57.50
69796;BME280;57073;45.650;9.612;2022-09-27T08:55:34;97606.59;;;19.11;58.38
69796;BME280;57073;45.650;9.612;2022-09-27T08:57:36;97598.75;;;19.09;58.60
69796;BME280;57073;45.650;9.612;2022-09-27T09:01:52;97608.56;;;19.28;57.94
69796;BME280;57073;45.650;9.612;2022-09-27T09:03:56;97604.56;;;19.25;56.99
69796;BME280;57073;45.650;9.612;2022-09-27T09:06:16;97600.41;;;19.28;57.27
69796;BME280;57073;45.650;9.612;2022-09-27T09:08:29;97600.28;;;19.42;56.87
69796;BME280;57073;45.650;9.612;2022-09-27T09:10:52;97597.22;;;19.34;57.22
69796;BME280;57073;45.650;9.612;2022-09-27T09:15:48;97605.44;;;19.69;55.79
69796;BME280;57073;45.650;9.612;2022-09-27T09:18:19;97600.31;;;19.59;56.22
69796;BME280;57073;45.650;9.612;2022-09-27T09:30:24;97594.50;;;19.43;57.03
69796;BME280;57073;45.650;9.612;2022-09-27T09:34:50;97591.34;;;19.59;57.48
69796;BME280;57073;45.650;9.612;2022-09-27T09:39:18;97577.75;;;19.59;57.22
69796;BME280;57073;45.650;9.612;2022-09-27T09:41:25;97592.63;;;19.61;56.65
69796;BME280;57073;45.650;9.612;2022-09-27T09:45:39;97585.88;;;19.50;56.09
69796;BME280;57073;45.650;9.612;2022-09-27T09:50:19;97580.13;;;19.43;56.59
69796;BME280;57073;45.650;9.612;2022-09-27T09:52:23;97579.97;;;19.57;56.98
69796;BME280;57073;45.650;9.612;2022-09-27T09:59:18;97578.88;;;19.66;57.32
69796;BME280;57073;45.650;9.612;2022-09-27T10:01:29;97570.53;;;19.63;56.32
69796;BME280;57073;45.650;9.612;2022-09-27T10:03:32;97567.03;;;19.71;56.37
69796;BME280;57073;45.650;9.612;2022-09-27T10:05:33;97562.53;;;19.66;56.51
69796;BME280;57073;45.650;9.612;2022-09-27T10:07:36;97560.16;;;19.73;56.86
69796;BME280;57073;45.650;9.612;2022-09-27T10:09:38;97566.25;;;19.79;56.23
69796;BME280;57073;45.650;9.612;2022-09-27T10:11:44;97567.88;;;19.80;56.06
69796;BME280;57073;45.650;9.612;2022-09-27T10:13:45;97563.69;;;19.83;55.71
69796;BME280;57073;45.650;9.612;2022-09-27T10:16:00;97562.91;;;19.82;56.03
69796;BME280;57073;45.650;9.612;2022-09-27T10:18:02;97560.81;;;19.88;56.83
69796;BME280;57073;45.650;9.612;2022-09-27T10:20:04;97559.72;;;19.89;56.99
69796;BME280;57073;45.650;9.612;2022-09-27T10:22:23;97561.78;;;19.83;56.31
69796;BME280;57073;45.650;9.612;2022-09-27T10:24:25;97560.19;;;19.91;56.00
69796;BME280;57073;45.650;9.612;2022-09-27T10:26:26;97559.34;;;19.90;55.85
69796;BME280;57073;45.650;9.612;2022-09-27T10:28:43;97566.56;;;20.04;56.32
69796;BME280;57073;45.650;9.612;2022-09-27T10:30:54;97563.84;;;20.04;56.94
69796;BME280;57073;45.650;9.612;2022-09-27T10:33:05;97559.69;;;20.06;56.16
69796;BME280;57073;45.650;9.612;2022-09-27T10:37:29;97545.75;;;20.17;55.74
69796;BME280;57073;45.650;9.612;2022-09-27T10:39:30;97544.59;;;20.18;56.63
69796;BME280;57073;45.650;9.612;2022-09-27T10:41:31;97548.94;;;20.10;55.30
69796;BME280;57073;45.650;9.612;2022-09-27T10:43:35;97552.81;;;20.09;56.31
69796;BME280;57073;45.650;9.612;2022-09-27T10:45:36;97552.13;;;20.12;55.67
69796;BME280;57073;45.650;9.612;2022-09-27T10:47:37;97556.63;;;20.17;55.46
69796;BME280;57073;45.650;9.612;2022-09-27T10:49:41;97554.53;;;20.14;55.25
69796;BME280;57073;45.650;9.612;2022-09-27T10:51:42;97552.44;;;20.19;55.80
69796;BME280;57073;45.650;9.612;2022-09-27T10:53:44;97550.03;;;20.18;55.79
69796;BME280;57073;45.650;9.612;2022-09-27T10:55:47;97549.72;;;20.19;56.16
69796;BME280;57073;45.650;9.612;2022-09-27T10:57:51;97542.69;;;20.18;55.88
69796;BME280;57073;45.650;9.612;2022-09-27T10:59:55;97535.94;;;20.16;55.30
69796;BME280;57073;45.650;9.612;2022-09-27T11:01:57;97536.63;;;20.13;54.50
69796;BME280;57073;45.650;9.612;2022-09-27T11:03:59;97534.84;;;20.17;55.08
69796;BME280;57073;45.650;9.612;2022-09-27T11:05:59;97534.69;;;20.13;54.23
69796;BME280;57073;45.650;9.612;2022-09-27T11:10:33;97542.06;;;20.13;53.96
69796;BME280;57073;45.650;9.612;2022-09-27T11:12:34;97536.78;;;20.16;54.55
69796;BME280;57073;45.650;9.612;2022-09-27T11:14:35;97541.25;;;20.12;53.63
69796;BME280;57073;45.650;9.612;2022-09-27T11:16:40;97532.13;;;20.17;53.18
69796;BME280;57073;45.650;9.612;2022-09-27T11:19:05;97535.63;;;20.17;53.82
69796;BME280;57073;45.650;9.612;2022-09-27T11:21:21;97534.53;;;20.18;53.69
69796;BME280;57073;45.650;9.612;2022-09-27T11:24:00;97535.94;;;20.16;53.02
69796;BME280;57073;45.650;9.612;2022-09-27T11:31:06;97522.00;;;20.26;53.53
69796;BME280;57073;45.650;9.612;2022-09-27T11:38:01;97510.31;;;20.25;52.60
69796;BME280;57073;45.650;9.612;2022-09-27T11:40:21;97510.00;;;20.27;52.99
69796;BME280;57073;45.650;9.612;2022-09-27T11:47:04;97504.69;;;20.30;52.93
69796;BME280;57073;45.650;9.612;2022-09-27T11:54:11;97499.88;;;20.36;53.34
69796;BME280;57073;45.650;9.612;2022-09-27T12:00:54;97497.16;;;20.36;51.26
69796;BME280;57073;45.650;9.612;2022-09-27T12:05:20;97490.72;;;20.32;50.34
69796;BME280;57073;45.650;9.612;2022-09-27T12:07:44;97486.44;;;20.31;50.41
69796;BME280;57073;45.650;9.612;2022-09-27T12:09:55;97481.28;;;20.29;50.95
69796;BME280;57073;45.650;9.612;2022-09-27T12:12:08;97479.19;;;20.35;51.88
69796;BME280;57073;45.650;9.612;2022-09-27T12:16:15;97475.69;;;20.26;51.55
69796;BME280;57073;45.650;9.612;2022-09-27T12:18:25;97472.94;;;20.35;52.04
69796;BME280;57073;45.650;9.612;2022-09-27T12:20:28;97462.38;;;20.33;51.73
69796;BME280;57073;45.650;9.612;2022-09-27T12:22:39;97464.63;;;20.31;50.91
69796;BME280;57073;45.650;9.612;2022-09-27T12:24:44;97472.94;;;20.35;50.91
69796;BME280;57073;45.650;9.612;2022-09-27T12:26:46;97473.56;;;20.40;51.54
69796;BME280;57073;45.650;9.612;2022-09-27T12:30:56;97461.41;;;20.38;50.83
69796;BME280;57073;45.650;9.612;2022-09-27T12:33:16;97454.97;;;20.42;51.50
69796;BME280;57073;45.650;9.612;2022-09-27T12:35:28;97452.56;;;20.41;50.55
69796;BME280;57073;45.650;9.612;2022-09-27T12:40:07;97458.63;;;20.46;51.16
69796;BME280;57073;45.650;9.612;2022-09-27T12:42:32;97454.94;;;20.51;51.69
69796;BME280;57073;45.650;9.612;2022-09-27T12:44:38;97457.47;;;20.56;50.20
69796;BME280;57073;45.650;9.612;2022-09-27T12:51:16;97448.31;;;20.70;51.29
69796;BME280;57073;45.650;9.612;2022-09-27T12:53:25;97449.59;;;20.72;49.91